Time;durP1;ratioP1;P1;durP2;ratioP2;P2;SDS_P1;SDS_P2;PMS_P1;PMS_P2;Temp;Humidity;BMP_temperature;BMP_pressure;BME280_temperature;BME280_humidity;BME280_pressure;Samples;Min_cycle;Max_cycle;Signal;HPM_P1;HPM_P2
2022/05/08 00:01:23;;;;;;;;;;;;;;;12.53;100.00;100407.00;5044116;28;20298;-91
2022/05/08 00:03:50;;;;;;;;;;;;;;;12.78;100.00;100401.31;5060397;28;19928;-90
2022/05/08 00:06:18;;;;;;;;;;;;;;;12.25;100.00;100407.03;5043854;28;19928;-90
2022/05/08 00:08:45;;;;;;;;;;;;;;;12.17;100.00;100405.47;5043851;28;19924;-90
2022/05/08 00:11:12;;;;;;;;;;;;;;;11.39;100.00;100415.00;5060153;28;19930;-90
2022/05/08 00:13:39;;;;;;;;;;;;;;;11.38;100.00;100410.59;5043385;28;19959;-90
2022/05/08 00:16:06;;;;;;;;;;;;;;;11.52;100.00;100407.84;5043247;28;19928;-90
2022/05/08 00:18:34;;;;;;;;;;;;;;;11.66;100.00;100407.88;5060775;28;19924;-89
2022/05/08 00:21:02;;;;;;;;;;;;;;;11.84;100.00;100397.50;5055933;28;20379;-90
2022/05/08 00:23:29;;;;;;;;;;;;;;;12.07;100.00;100411.88;5072799;28;20070;-90
2022/05/08 00:25:56;;;;;;;;;;;;;;;12.08;100.00;100402.28;5073403;28;19924;-90
2022/05/08 00:28:23;;;;;;;;;;;;;;;11.83;100.00;100401.47;5052223;28;20015;-90
2022/05/08 00:30:51;;;;;;;;;;;;;;;11.12;100.00;100399.75;5076769;28;19928;-90
2022/05/08 00:33:18;;;;;;;;;;;;;;;11.26;100.00;100407.38;5043295;28;19924;-89
2022/05/08 00:35:45;;;;;;;;;;;;;;;11.45;100.00;100402.22;5060174;28;19977;-89
2022/05/08 00:38:13;;;;;;;;;;;;;;;11.65;100.00;100405.47;5045002;28;20003;-90
2022/05/08 00:40:40;;;;;;;;;;;;;;;11.81;100.00;100403.91;5046870;28;20020;-89
2022/05/08 00:43:28;;;;;;;;;;;;;;;11.69;100.00;100401.47;5046809;28;19924;-89
2022/05/08 00:45:55;;;;;;;;;;;;;;;11.69;100.00;100395.09;5046874;28;19924;-89
2022/05/08 00:48:22;;;;;;;;;;;;;;;11.77;100.00;100386.28;5063221;28;20268;-90
2022/05/08 00:50:50;;;;;;;;;;;;;;;11.17;100.00;100388.16;5079933;28;19924;-90
2022/05/08 00:53:18;;;;;;;;;;;;;;;10.30;100.00;100394.19;5080398;28;19955;-89
2022/05/08 00:55:46;;;;;;;;;;;;;;;10.18;100.00;100391.69;5063359;28;20012;-89
2022/05/08 00:58:17;;;;;;;;;;;;;;;10.34;100.00;100395.81;5080077;28;20318;-90
2022/05/08 01:00:45;;;;;;;;;;;;;;;11.01;100.00;100392.53;5047051;28;19925;-89
2022/05/08 01:03:14;;;;;;;;;;;;;;;11.33;100.00;100399.00;5046720;28;19924;-90
2022/05/08 01:05:42;;;;;;;;;;;;;;;11.48;100.00;100395.03;5046734;28;19935;-90
2022/05/08 01:08:10;;;;;;;;;;;;;;;11.71;100.00;100399.06;5063333;28;20020;-90
2022/05/08 01:10:38;;;;;;;;;;;;;;;11.74;100.00;100389.88;5063289;28;19924;-90
2022/05/08 01:13:05;;;;;;;;;;;;;;;11.76;100.00;100389.47;5046753;28;19924;-90
2022/05/08 01:15:43;;;;;;;;;;;;;;;11.60;100.00;100392.63;5063655;28;19960;-90
2022/05/08 01:18:12;;;;;;;;;;;;;;;11.37;100.00;100395.03;5062874;28;19938;-90
2022/05/08 01:20:40;;;;;;;;;;;;;;;11.59;100.00;100390.22;5046600;28;19947;-90
2022/05/08 01:23:08;;;;;;;;;;;;;;;11.57;100.00;100382.22;5046303;28;19924;-90
2022/05/08 01:25:43;;;;;;;;;;;;;;;11.44;100.00;100389.41;5063022;28;19925;-90
2022/05/08 01:28:11;;;;;;;;;;;;;;;11.23;100.00;100389.38;5062888;28;19930;-90
2022/05/08 01:30:43;;;;;;;;;;;;;;;11.46;100.00;100384.25;5046561;28;19924;-90
2022/05/08 01:33:10;;;;;;;;;;;;;;;11.58;100.00;100378.25;5046456;28;20001;-90
2022/05/08 01:35:39;;;;;;;;;;;;;;;11.54;100.00;100371.81;5063162;28;19931;-90
2022/05/08 01:38:07;;;;;;;;;;;;;;;11.14;100.00;100371.38;5062300;28;19974;-90
2022/05/08 01:40:34;;;;;;;;;;;;;;;11.06;100.00;100378.16;5045969;28;19924;-90
2022/05/08 01:43:02;;;;;;;;;;;;;;;10.94;100.00;100365.31;5062724;28;19928;-90
2022/05/08 01:45:29;;;;;;;;;;;;;;;11.13;100.00;100366.97;5062590;28;19924;-90
2022/05/08 01:50:42;;;;;;;;;;;;;;;10.76;100.00;100367.25;5078167;28;19931;-91
2022/05/08 01:53:09;;;;;;;;;;;;;;;11.03;100.00;100368.53;5062497;28;19924;-91
2022/05/08 01:55:37;;;;;;;;;;;;;;;11.17;100.00;100365.78;5045896;28;19928;-90
2022/05/08 01:58:04;;;;;;;;;;;;;;;11.03;100.00;100360.16;5079184;28;20029;-89
2022/05/08 02:00:32;;;;;;;;;;;;;;;10.93;100.00;100360.94;5045768;28;19928;-90
2022/05/08 02:03:00;;;;;;;;;;;;;;;10.94;100.00;100365.31;5045362;28;19931;-90
2022/05/08 02:05:29;;;;;;;;;;;;;;;10.98;100.00;100364.13;5062312;28;19947;-89
2022/05/08 02:07:57;;;;;;;;;;;;;;;10.97;100.00;100367.34;5045887;28;19924;-90
2022/05/08 02:10:24;;;;;;;;;;;;;;;10.88;100.00;100366.91;5045754;28;20371;-90
2022/05/08 02:13:00;;;;;;;;;;;;;;;11.04;100.00;100372.97;5062586;28;20446;-91
2022/05/08 02:15:31;;;;;;;;;;;;;;;11.09;100.00;100371.78;5046312;28;19924;-90
2022/05/08 02:18:00;;;;;;;;;;;;;;;11.08;100.00;100381.34;5045764;28;19928;-90
2022/05/08 02:20:28;;;;;;;;;;;;;;;11.05;100.00;100374.56;5062590;28;19923;-90
2022/05/08 02:22:55;;;;;;;;;;;;;;;10.72;100.00;100372.06;5045762;28;20386;-90
2022/05/08 02:25:23;;;;;;;;;;;;;;;10.94;100.00;100370.91;5078814;28;19935;-90
2022/05/08 02:27:51;;;;;;;;;;;;;;;10.70;100.00;100372.44;5062361;28;19946;-90
2022/05/08 02:30:20;;;;;;;;;;;;;;;10.60;100.00;100378.00;5062014;28;20443;-90
2022/05/08 02:32:47;;;;;;;;;;;;;;;10.47;100.00;100379.50;5045158;28;20260;-90
2022/05/08 02:35:17;;;;;;;;;;;;;;;9.90;100.00;100380.31;5078204;28;19951;-90
2022/05/08 02:37:44;;;;;;;;;;;;;;;9.89;100.00;100373.13;5061460;28;19946;-91
2022/05/08 02:40:11;;;;;;;;;;;;;;;10.42;100.00;100377.88;5045121;28;19978;-90
2022/05/08 02:42:39;;;;;;;;;;;;;;;10.73;100.00;100382.03;5061687;28;19924;-89
2022/05/08 02:45:09;;;;;;;;;;;;;;;10.81;100.00;100378.84;5044452;28;19924;-90
2022/05/08 02:47:41;;;;;;;;;;;;;;;10.80;100.00;100382.84;5045345;28;19931;-90
2022/05/08 02:50:11;;;;;;;;;;;;;;;10.83;100.00;100376.47;5060826;28;19924;-90
2022/05/08 02:52:39;;;;;;;;;;;;;;;11.04;100.00;100381.34;5077804;28;20287;-90
2022/05/08 03:00:40;;;;;;;;;;;;;;;10.54;100.00;100369.16;5061340;28;19947;-90
2022/05/08 03:03:08;;;;;;;;;;;;;;;10.59;100.00;100377.19;5077537;28;19924;-90
2022/05/08 03:05:36;;;;;;;;;;;;;;;10.73;100.00;100373.63;5061142;28;20038;-90
2022/05/08 03:09:35;;;;;;;;;;;;;;;11.17;100.00;100374.19;5072938;28;19917;-90
2022/05/08 03:12:03;;;;;;;;;;;;;;;11.30;100.00;100375.41;5037625;28;19925;-91
2022/05/08 03:14:30;;;;;;;;;;;;;;;11.45;100.00;100382.63;5037601;28;19948;-90
2022/05/08 03:16:57;;;;;;;;;;;;;;;11.57;100.00;100385.03;5037501;28;20288;-90
2022/05/08 03:19:26;;;;;;;;;;;;;;;11.62;100.00;100373.47;5037443;28;20375;-90
2022/05/08 03:21:53;;;;;;;;;;;;;;;11.66;100.00;100377.06;5070531;28;20398;-91
2022/05/08 03:24:20;;;;;;;;;;;;;;;10.12;100.00;100379.28;5037244;28;20043;-91
2022/05/08 03:26:47;;;;;;;;;;;;;;;10.06;100.00;100376.03;5054235;28;20399;-90
2022/05/08 03:29:15;;;;;;;;;;;;;;;10.08;100.00;100378.47;5053639;28;19932;-91
2022/05/08 03:31:42;;;;;;;;;;;;;;;10.10;100.00;100381.69;5037237;28;20380;-90
2022/05/08 03:34:09;;;;;;;;;;;;;;;10.49;100.00;100382.72;5054314;28;20372;-90
2022/05/08 03:36:37;;;;;;;;;;;;;;;10.08;100.00;100375.69;5037194;28;20279;-90
2022/05/08 03:39:04;;;;;;;;;;;;;;;9.76;100.00;100371.81;5037310;28;19929;-90
2022/05/08 03:41:31;;;;;;;;;;;;;;;9.70;100.00;100368.59;5053579;28;19928;-90
2022/05/08 03:43:59;;;;;;;;;;;;;;;9.92;100.00;100369.56;5053989;28;19925;-90
2022/05/08 03:46:26;;;;;;;;;;;;;;;10.16;100.00;100371.75;5037071;28;20291;-90
2022/05/08 03:48:54;;;;;;;;;;;;;;;10.36;100.00;100373.06;5036847;28;19974;-90
2022/05/08 03:51:21;;;;;;;;;;;;;;;10.63;100.00;100375.19;5053491;28;20299;-89
2022/05/08 03:53:48;;;;;;;;;;;;;;;10.35;100.00;100379.84;5036630;28;19946;-90
2022/05/08 03:56:16;;;;;;;;;;;;;;;9.69;100.00;100374.56;5053295;28;19956;-90
2022/05/08 03:58:43;;;;;;;;;;;;;;;9.61;100.00;100372.88;5053501;28;19932;-91
2022/05/08 04:01:10;;;;;;;;;;;;;;;9.97;100.00;100371.97;5053420;28;19924;-90
2022/05/08 04:03:38;;;;;;;;;;;;;;;10.45;100.00;100373.53;5053202;28;19924;-90
2022/05/08 04:06:05;;;;;;;;;;;;;;;10.80;100.00;100365.28;5037048;28;20421;-90
2022/05/08 04:08:33;;;;;;;;;;;;;;;10.65;100.00;100369.22;5036288;28;19925;-90
2022/05/08 04:11:00;;;;;;;;;;;;;;;10.55;100.00;100369.97;5019977;28;20028;-91
2022/05/08 04:13:27;;;;;;;;;;;;;;;10.37;100.00;100369.09;5019968;28;19970;-91
2022/05/08 04:18:41;;;;;;;;;;;;;;;10.96;100.00;100368.53;5035562;28;19940;-90
2022/05/08 04:21:08;;;;;;;;;;;;;;;10.90;100.00;100362.50;5023106;28;20016;-90
2022/05/08 04:26:21;;;;;;;;;;;;;;;10.69;100.00;100368.03;5023136;28;19928;-91
2022/05/08 04:28:49;;;;;;;;;;;;;;;10.87;100.00;100373.69;5022750;28;19931;-92
2022/05/08 04:31:16;;;;;;;;;;;;;;;10.73;100.00;100371.66;5022817;28;20380;-90
2022/05/08 04:33:44;;;;;;;;;;;;;;;10.92;100.00;100373.31;5022977;28;19929;-90
2022/05/08 04:36:13;;;;;;;;;;;;;;;10.77;100.00;100375.25;5023829;28;19928;-92
2022/05/08 04:38:40;;;;;;;;;;;;;;;11.10;100.00;100374.19;5006320;28;19925;-90
2022/05/08 04:41:07;;;;;;;;;;;;;;;10.78;100.00;100373.28;5039009;28;19931;-90
2022/05/08 04:43:35;;;;;;;;;;;;;;;11.18;100.00;100372.19;5006703;28;19925;-91
2022/05/08 04:46:02;;;;;;;;;;;;;;;11.43;100.00;100371.03;5006229;28;19925;-90
2022/05/08 04:48:29;;;;;;;;;;;;;;;11.31;100.00;100368.63;5022476;28;19931;-91
2022/05/08 04:50:57;;;;;;;;;;;;;;;11.44;100.00;100377.41;5006329;28;19924;-91
2022/05/08 04:53:24;;;;;;;;;;;;;;;11.37;100.00;100369.84;5006408;28;19935;-90
2022/05/08 04:55:51;;;;;;;;;;;;;;;11.53;100.00;100373.03;5006643;28;20319;-92
2022/05/08 04:58:18;;;;;;;;;;;;;;;11.47;100.00;100377.44;5022994;28;20019;-90
2022/05/08 05:00:46;;;;;;;;;;;;;;;10.67;100.00;100378.00;5022646;28;19925;-92
2022/05/08 05:03:13;;;;;;;;;;;;;;;10.64;100.00;100376.00;5006071;28;19924;-90
2022/05/08 05:05:41;;;;;;;;;;;;;;;10.70;100.00;100382.81;5006086;28;20368;-90
2022/05/08 05:08:08;;;;;;;;;;;;;;;10.93;100.00;100381.28;5022473;28;19925;-91
2022/05/08 05:10:36;;;;;;;;;;;;;;;11.02;100.00;100377.34;5038814;28;19925;-91
2022/05/08 05:13:03;;;;;;;;;;;;;;;11.22;100.00;100385.00;5022308;28;19925;-91
2022/05/08 05:15:31;;;;;;;;;;;;;;;11.75;100.00;100377.50;5006208;28;20014;-90
2022/05/08 05:18:01;;;;;;;;;;;;;;;11.24;100.00;100382.59;5005929;28;19928;-92
2022/05/08 05:20:29;;;;;;;;;;;;;;;11.25;100.00;100387.00;5006131;28;19978;-90
2022/05/08 05:23:00;;;;;;;;;;;;;;;11.78;100.00;100387.91;5022759;28;19925;-90
2022/05/08 05:25:28;;;;;;;;;;;;;;;11.64;100.00;100384.28;5005567;28;19925;-91
2022/05/08 05:27:55;;;;;;;;;;;;;;;11.40;100.00;100385.03;5021651;28;20039;-91
2022/05/08 05:30:23;;;;;;;;;;;;;;;11.26;100.00;100383.00;5005283;28;19924;-90
2022/05/08 05:32:50;;;;;;;;;;;;;;;11.23;100.00;100378.19;5004719;28;19929;-90
2022/05/08 05:35:17;;;;;;;;;;;;;;;11.27;100.00;100389.41;5005714;28;20058;-91
2022/05/08 05:37:44;;;;;;;;;;;;;;;11.55;100.00;100400.63;5037837;28;19971;-90
2022/05/08 05:40:12;;;;;;;;;;;;;;;11.68;100.00;100399.88;5021719;28;19925;-89
2022/05/08 05:42:39;;;;;;;;;;;;;;;11.94;100.00;100399.47;5005171;28;19976;-90
2022/05/08 05:45:07;;;;;;;;;;;;;;;12.23;100.00;100400.25;5038014;28;19924;-91
2022/05/08 05:47:49;;;;;;;;;;;;;;;11.90;100.00;100395.91;5021422;28;19964;-91
2022/05/08 05:50:17;;;;;;;;;;;;;;;11.64;100.00;100398.28;5005137;28;20074;-90
2022/05/08 05:52:45;;;;;;;;;;;;;;;11.71;100.00;100398.28;5005180;28;20003;-91
2022/05/08 05:55:12;;;;;;;;;;;;;;;11.83;100.00;100397.91;5021202;28;19925;-88
2022/05/08 05:57:40;;;;;;;;;;;;;;;11.67;100.00;100401.09;5021025;28;20399;-89
2022/05/08 06:00:09;;;;;;;;;;;;;;;11.20;100.00;100401.38;5021453;28;20007;-90
2022/05/08 06:02:40;;;;;;;;;;;;;;;11.55;100.00;100406.22;5038018;28;20074;-90
2022/05/08 06:05:08;;;;;;;;;;;;;;;11.47;100.00;100410.22;5054577;28;19971;-93
2022/05/08 06:07:35;;;;;;;;;;;;;;;11.28;100.00;100408.59;5004768;28;19925;-88
2022/05/08 06:10:03;;;;;;;;;;;;;;;11.17;100.00;100406.94;5036695;28;19941;-80
2022/05/08 06:12:31;;;;;;;;;;;;;;;11.38;100.00;100405.00;5054404;28;20019;-81
2022/05/08 06:14:59;;;;;;;;;;;;;;;10.69;100.00;100411.97;5045003;28;19924;-81
2022/05/08 06:17:30;;;;;;;;;;;;;;;11.02;100.00;100420.09;5030405;28;19925;-80
2022/05/08 06:20:12;;;;;;;;;;;;;;;11.90;100.00;100415.50;5015768;28;19932;-81
2022/05/08 06:22:40;;;;;;;;;;;;;;;11.75;100.00;100404.69;5045339;28;20379;-81
2022/05/08 06:25:07;;;;;;;;;;;;;;;11.86;100.00;100409.09;5053551;28;19924;-81
2022/05/08 06:27:35;;;;;;;;;;;;;;;11.57;100.00;100404.63;5054653;28;19928;-81
2022/05/08 06:30:02;;;;;;;;;;;;;;;12.07;100.00;100413.91;5054043;28;19928;-81
2022/05/08 06:32:29;;;;;;;;;;;;;;;12.37;100.00;100411.44;5035549;28;19999;-81
2022/05/08 06:34:59;;;;;;;;;;;;;;;12.26;100.00;100405.88;5032815;28;19931;-81
2022/05/08 06:37:26;;;;;;;;;;;;;;;12.02;100.00;100409.50;5033894;28;19925;-81
2022/05/08 06:39:54;;;;;;;;;;;;;;;11.93;100.00;100405.50;5032958;28;19932;-81
2022/05/08 06:42:21;;;;;;;;;;;;;;;12.06;100.00;100409.47;5033823;28;20385;-81
2022/05/08 06:44:53;;;;;;;;;;;;;;;12.32;100.00;100412.66;5041123;28;19924;-81
2022/05/08 06:47:20;;;;;;;;;;;;;;;12.17;100.00;100411.09;5042790;28;19933;-81
2022/05/08 06:49:48;;;;;;;;;;;;;;;12.31;100.00;100410.25;5016668;28;20026;-81
2022/05/08 06:52:16;;;;;;;;;;;;;;;12.10;100.00;100404.69;5016334;28;20031;-81
2022/05/08 06:54:43;;;;;;;;;;;;;;;12.48;100.00;100404.59;5032891;28;19947;-81
2022/05/08 06:57:12;;;;;;;;;;;;;;;12.23;100.00;100403.88;5043310;28;20392;-81
2022/05/08 07:02:26;;;;;;;;;;;;;;;11.82;100.00;100399.88;5054074;28;19925;-81
2022/05/08 07:04:54;;;;;;;;;;;;;;;10.94;100.00;100415.66;5053852;28;20442;-81
2022/05/08 07:07:22;;;;;;;;;;;;;;;11.86;100.00;100414.69;5052143;28;20277;-81
2022/05/08 07:09:51;;;;;;;;;;;;;;;11.69;100.00;100421.06;5035845;28;19925;-81
2022/05/08 07:12:19;;;;;;;;;;;;;;;12.34;100.00;100426.28;5052344;28;20299;-81
2022/05/08 07:14:46;;;;;;;;;;;;;;;11.95;100.00;100425.50;5033733;28;19965;-81
2022/05/08 07:17:17;;;;;;;;;;;;;;;11.90;100.00;100421.09;5052980;28;19925;-81
2022/05/08 07:19:46;;;;;;;;;;;;;;;12.35;100.00;100423.06;5053689;28;20025;-81
2022/05/08 07:22:16;;;;;;;;;;;;;;;12.19;100.00;100430.28;5053945;28;19931;-81
2022/05/08 07:24:43;;;;;;;;;;;;;;;11.80;100.00;100438.69;5052760;28;19925;-81
2022/05/08 07:27:11;;;;;;;;;;;;;;;12.48;100.00;100432.63;5036065;28;19931;-81
2022/05/08 07:29:41;;;;;;;;;;;;;;;13.22;100.00;100414.78;5053377;28;19924;-81
2022/05/08 07:32:09;;;;;;;;;;;;;;;11.53;100.00;100420.63;5051982;28;20433;-80
2022/05/08 07:37:23;;;;;;;;;;;;;;;12.80;100.00;100415.72;5032444;28;19931;-86
2022/05/08 07:39:50;;;;;;;;;;;;;;;13.15;100.00;100417.59;5016065;28;20400;-83
2022/05/08 07:42:17;;;;;;;;;;;;;;;13.38;100.00;100412.25;5026880;28;19924;-86
2022/05/08 07:44:44;;;;;;;;;;;;;;;13.06;100.00;100406.81;5032578;28;20365;-82
2022/05/08 07:47:13;;;;;;;;;;;;;;;12.32;100.00;100420.25;5032399;28;20395;-83
2022/05/08 07:49:40;;;;;;;;;;;;;;;13.46;100.00;100409.03;5032269;28;19925;-83
2022/05/08 07:52:07;;;;;;;;;;;;;;;12.49;100.00;100414.63;5033349;28;19926;-83
2022/05/08 07:54:35;;;;;;;;;;;;;;;13.49;100.00;100413.00;5032366;28;20296;-84
2022/05/08 07:57:03;;;;;;;;;;;;;;;13.33;100.00;100415.53;5037091;28;19960;-84
2022/05/08 07:59:30;;;;;;;;;;;;;;;13.19;100.00;100415.59;5037666;28;19924;-86
2022/05/08 08:01:57;;;;;;;;;;;;;;;13.27;100.00;100423.56;5020703;28;20338;-85
2022/05/08 08:04:25;;;;;;;;;;;;;;;13.63;100.00;100413.69;5054301;28;19924;-83
2022/05/08 08:06:52;;;;;;;;;;;;;;;13.48;100.00;100405.81;5038261;28;19925;-83
2022/05/08 08:09:20;;;;;;;;;;;;;;;13.30;100.00;100413.53;5034584;28;20285;-82
2022/05/08 08:11:47;;;;;;;;;;;;;;;12.75;100.00;100418.97;5054371;28;20019;-82
2022/05/08 08:14:14;;;;;;;;;;;;;;;13.49;100.00;100410.19;5054636;28;19932;-83
2022/05/08 08:16:53;;;;;;;;;;;;;;;12.22;100.00;100412.69;5053710;28;19925;-83
2022/05/08 08:19:21;;;;;;;;;;;;;;;12.78;100.00;100412.53;5053033;28;20532;-83
2022/05/08 08:21:49;;;;;;;;;;;;;;;13.06;100.00;100411.63;5036315;28;20383;-84
2022/05/08 08:24:16;;;;;;;;;;;;;;;12.89;100.00;100412.50;5053123;28;20585;-83
2022/05/08 08:26:43;;;;;;;;;;;;;;;13.19;100.00;100415.59;5054780;28;20281;-87
2022/05/08 08:29:10;;;;;;;;;;;;;;;13.15;100.00;100414.78;5055143;28;19925;-83
2022/05/08 08:31:37;;;;;;;;;;;;;;;12.67;100.00;100423.78;5056342;28;20402;-85
2022/05/08 08:34:05;;;;;;;;;;;;;;;13.37;100.00;100419.09;5056606;28;20388;-77
2022/05/08 08:36:32;;;;;;;;;;;;;;;13.29;100.00;100426.75;5054901;28;19925;-76
2022/05/08 08:38:59;;;;;;;;;;;;;;;13.10;100.00;100420.84;5056220;28;19924;-77
2022/05/08 08:41:27;;;;;;;;;;;;;;;13.35;100.00;100421.50;5038596;28;20353;-77
2022/05/08 08:49:33;;;;;;;;;;;;;;;13.77;100.00;100413.59;5036453;28;20608;-85
2022/05/08 08:52:00;;;;;;;;;;;;;;;14.07;100.00;100410.16;5054871;28;19925;-85
2022/05/08 08:54:27;;;;;;;;;;;;;;;14.09;100.00;100405.72;5038094;28;19925;-84
2022/05/08 08:56:54;;;;;;;;;;;;;;;14.59;100.00;100391.97;5056004;28;20380;-88
2022/05/08 08:59:27;;;;;;;;;;;;;;;14.82;100.00;100406.19;5038944;28;19925;-85
2022/05/08 09:01:55;;;;;;;;;;;;;;;14.75;100.00;100400.66;5032013;28;19925;-83
2022/05/08 09:04:22;;;;;;;;;;;;;;;15.21;100.00;100395.22;5017889;28;20277;-84
2022/05/08 09:06:50;;;;;;;;;;;;;;;14.91;100.00;100398.03;5034472;28;19964;-85
2022/05/08 09:09:21;;;;;;;;;;;;;;;13.32;100.00;100406.28;5034431;28;19925;-82
2022/05/08 09:11:49;;;;;;;;;;;;;;;13.38;100.00;100409.47;5018108;28;19925;-82
2022/05/08 09:14:29;;;;;;;;;;;;;;;12.93;100.00;100418.88;5035925;28;19940;-82
2022/05/08 09:16:56;;;;;;;;;;;;;;;14.44;100.00;100415.84;5035822;28;19932;-83
2022/05/08 09:19:43;;;;;;;;;;;;;;;15.45;100.00;100410.22;5017811;28;20092;-85
2022/05/08 09:22:12;;;;;;;;;;;;;;;16.19;100.00;100398.56;5018262;28;19925;-85
2022/05/08 09:24:53;;;;;;;;;;;;;;;16.42;100.00;100397.72;5002345;28;19932;-85
2022/05/08 09:27:20;;;;;;;;;;;;;;;15.96;100.00;100396.50;5017795;28;19935;-86
2022/05/08 09:29:48;;;;;;;;;;;;;;;16.23;100.00;100394.44;5034033;28;20372;-85
2022/05/08 09:32:35;;;;;;;;;;;;;;;16.49;100.00;100389.16;5020073;28;19925;-85
2022/05/08 09:35:03;;;;;;;;;;;;;;;15.89;100.00;100399.44;5017824;28;19948;-88
2022/05/08 09:37:30;;;;;;;;;;;;;;;15.98;100.00;100385.59;5033993;28;19929;-86
2022/05/08 09:40:17;;;;;;;;;;;;;;;15.83;100.00;100392.69;5025547;28;19925;-86
2022/05/08 09:42:46;;;;;;;;;;;;;;;16.74;100.00;100390.25;5034242;28;19994;-86
2022/05/08 09:45:14;;;;;;;;;;;;;;;16.06;100.00;100387.09;5001256;28;19925;-86
2022/05/08 09:47:42;;;;;;;;;;;;;;;15.63;100.00;100391.81;5017793;28;19932;-86
2022/05/08 09:50:10;;;;;;;;;;;;;;;16.95;100.00;100389.06;5035029;28;20300;-86
2022/05/08 09:52:42;;;;;;;;;;;;;;;17.22;100.00;100386.84;5035018;28;19925;-87
2022/05/08 09:55:13;;;;;;;;;;;;;;;15.98;100.00;100399.69;5033512;28;19925;-86
2022/05/08 09:57:40;;;;;;;;;;;;;;;15.88;100.00;100389.41;5042195;28;19994;-85
2022/05/08 10:00:10;;;;;;;;;;;;;;;16.71;100.00;100391.13;5037263;28;19932;-86
2022/05/08 10:02:40;;;;;;;;;;;;;;;18.00;100.00;100375.31;5053162;28;19924;-85
2022/05/08 10:05:08;;;;;;;;;;;;;;;18.36;100.00;100370.31;5036595;28;19925;-86
2022/05/08 10:07:36;;;;;;;;;;;;;;;17.59;100.00;100372.28;5008651;28;20576;-86
2022/05/08 10:15:48;;;;;;;;;;;;;;;19.32;100.00;100357.88;5034274;28;19975;-84
2022/05/08 10:18:29;;;;;;;;;;;;;;;19.60;100.00;100348.44;5016466;28;19932;-85
2022/05/08 10:21:01;;;;;;;;;;;;;;;18.68;100.00;100347.63;5033271;28;19925;-85
2022/05/08 10:23:38;;;;;;;;;;;;;;;18.34;100.00;100361.50;5016883;28;19925;-85
2022/05/08 10:26:15;;;;;;;;;;;;;;;18.12;100.00;100354.78;5016784;28;19925;-84
2022/05/08 10:28:58;;;;;;;;;;;;;;;17.39;100.00;100360.22;5018381;28;20115;-85
2022/05/08 10:31:43;;;;;;;;;;;;;;;17.30;100.00;100348.72;5036206;28;19928;-85
2022/05/08 10:34:11;;;;;;;;;;;;;;;18.33;100.00;100331.59;5036841;28;19948;-85
2022/05/08 10:36:41;;;;;;;;;;;;;;;17.48;100.00;100343.47;5052874;28;19924;-84
2022/05/08 10:39:27;;;;;;;;;;;;;;;17.71;100.00;100346.16;5024255;28;19925;-84
2022/05/08 10:41:56;;;;;;;;;;;;;;;18.64;100.00;100338.44;5016685;28;20031;-84
2022/05/08 10:44:37;;;;;;;;;;;;;;;19.17;100.00;100345.34;5032873;28;19925;-84
2022/05/08 10:47:22;;;;;;;;;;;;;;;18.40;100.00;100345.59;5034001;28;19925;-85
2022/05/08 10:49:49;;;;;;;;;;;;;;;17.06;100.00;100341.59;5016160;28;19929;-86
2022/05/08 10:52:17;;;;;;;;;;;;;;;17.10;100.00;100345.16;5032762;28;19926;-86
2022/05/08 10:54:56;;;;;;;;;;;;;;;18.00;100.00;100344.19;5034265;28;19925;-88
2022/05/08 10:57:30;;;;;;;;;;;;;;;18.42;100.00;100328.94;5032707;28;19948;-87
2022/05/08 10:59:59;;;;;;;;;;;;;;;19.08;100.00;100331.06;5032859;28;19929;-87
2022/05/08 11:02:44;;;;;;;;;;;;;;;19.55;100.00;100335.63;5000156;28;19925;-88
2022/05/08 11:05:12;;;;;;;;;;;;;;;18.85;100.00;100323.66;5015900;28;20083;-84
2022/05/08 11:07:49;;;;;;;;;;;;;;;19.26;100.00;100332.13;5039667;28;19925;-84
2022/05/08 11:10:18;;;;;;;;;;;;;;;17.04;100.00;100346.91;5031821;28;19925;-87
2022/05/08 11:12:54;;;;;;;;;;;;;;;17.73;100.00;100332.38;5031553;28;19925;-85
2022/05/08 11:15:21;;;;;;;;;;;;;;;17.77;100.00;100344.38;5019053;28;20019;-86
2022/05/08 11:18:03;;;;;;;;;;;;;;;18.31;100.00;100338.94;5015882;28;20331;-85
2022/05/08 11:20:36;;;;;;;;;;;;;;;17.27;100.00;100341.13;5037761;28;20019;-85
2022/05/08 11:23:04;;;;;;;;;;;;;;;18.44;100.00;100326.47;5029959;28;20391;-87
2022/05/08 11:25:34;;;;;;;;;;;;;;;18.66;100.00;100321.78;5020350;28;19932;-87
2022/05/08 11:28:01;;;;;;;;;;;;;;;18.83;100.00;100326.13;5048838;28;19963;-87
2022/05/08 11:30:33;;;;;;;;;;;;;;;17.38;100.00;100321.91;5028808;28;19925;-87
2022/05/08 11:36:04;;;;;;;;;;;;;;;16.95;100.00;100326.94;5035641;28;19929;-88
2022/05/08 11:38:44;;;;;;;;;;;;;;;16.92;100.00;100325.00;5030484;28;20300;-87
2022/05/08 11:41:13;;;;;;;;;;;;;;;17.53;100.00;100323.19;5022453;28;19928;-88
2022/05/08 11:43:50;;;;;;;;;;;;;;;18.60;100.00;100320.75;5038653;28;19931;-87
2022/05/08 11:46:19;;;;;;;;;;;;;;;17.64;100.00;100321.69;5038831;28;19947;-87
2022/05/08 11:48:50;;;;;;;;;;;;;;;18.66;100.00;100309.69;5039380;28;20354;-86
2022/05/08 11:51:21;;;;;;;;;;;;;;;17.56;100.00;100311.00;5035240;28;19925;-84
2022/05/08 11:53:49;;;;;;;;;;;;;;;17.67;100.00;100317.19;5035609;28;19925;-83
2022/05/08 11:56:20;;;;;;;;;;;;;;;17.62;100.00;100312.06;5032218;28;19925;-86
2022/05/08 11:58:50;;;;;;;;;;;;;;;17.94;100.00;100301.53;5049542;28;19960;-84
2022/05/08 12:01:23;;;;;;;;;;;;;;;17.75;100.00;100312.94;5038018;28;20036;-85
2022/05/08 12:03:51;;;;;;;;;;;;;;;18.31;100.00;100296.50;5038931;28;20007;-87
2022/05/08 12:06:19;;;;;;;;;;;;;;;18.46;100.00;100292.88;5035801;28;20035;-85
2022/05/08 12:08:48;;;;;;;;;;;;;;;17.83;100.00;100288.91;5052257;28;19925;-86
2022/05/08 12:11:26;;;;;;;;;;;;;;;18.42;100.00;100283.66;5038167;28;19929;-84
2022/05/08 12:14:03;;;;;;;;;;;;;;;19.12;100.00;100292.88;5031290;28;19926;-87
2022/05/08 12:16:31;;;;;;;;;;;;;;;18.63;100.00;100283.03;5042044;28;19925;-86
2022/05/08 12:19:28;;;;;;;;;;;;;;;17.81;100.00;100283.69;5034711;28;19964;-85
2022/05/08 12:21:55;;;;;;;;;;;;;;;17.35;100.00;100284.03;5018137;28;19964;-86
2022/05/08 12:24:22;;;;;;;;;;;;;;;18.26;100.00;100280.88;5018372;28;19932;-86
2022/05/08 12:26:50;;;;;;;;;;;;;;;17.30;100.00;100275.28;5034190;28;19931;-86
2022/05/08 12:29:22;;;;;;;;;;;;;;;17.95;100.00;100268.38;5034201;28;20418;-86
2022/05/08 12:31:50;;;;;;;;;;;;;;;17.94;100.00;100267.59;5018077;28;20355;-85
2022/05/08 12:34:18;;;;;;;;;;;;;;;19.18;100.00;100259.09;5017881;28;20040;-86
2022/05/08 12:36:48;;;;;;;;;;;;;;;18.94;100.00;100264.31;5034360;28;19925;-85
2022/05/08 12:39:17;;;;;;;;;;;;;;;18.48;100.00;100262.06;5034343;28;20012;-86
2022/05/08 12:41:44;;;;;;;;;;;;;;;19.47;100.00;100252.09;5017346;28;19925;-86
2022/05/08 12:44:11;;;;;;;;;;;;;;;19.68;100.00;100251.38;5017715;28;20024;-86
2022/05/08 12:46:38;;;;;;;;;;;;;;;19.16;100.00;100250.28;5001609;28;19932;-86
2022/05/08 12:49:06;;;;;;;;;;;;;;;19.37;100.00;100255.28;5017577;28;19988;-86
2022/05/08 12:51:35;;;;;;;;;;;;;;;19.62;100.00;100246.72;5017478;28;19925;-86
2022/05/08 12:54:02;;;;;;;;;;;;;;;18.83;100.00;100246.84;5017475;28;19925;-85
2022/05/08 12:56:31;;;;;;;;;;;;;;;16.98;100.00;100242.13;5035007;28;19925;-84
2022/05/08 13:01:44;;;;;;;;;;;;;;;18.15;100.00;100240.75;5035047;28;20281;-85
2022/05/08 13:04:11;;;;;;;;;;;;;;;17.61;100.00;100248.28;5017647;28;19925;-86
2022/05/08 13:06:38;;;;;;;;;;;;;;;17.50;100.00;100239.28;5017371;28;20292;-85
2022/05/08 13:09:09;;;;;;;;;;;;;;;18.10;100.00;100249.00;5033641;28;19925;-85
2022/05/08 13:11:37;;;;;;;;;;;;;;;17.89;100.00;100239.06;5016914;28;19929;-85
2022/05/08 13:14:04;;;;;;;;;;;;;;;18.35;100.00;100244.22;5033766;28;20387;-85
2022/05/08 13:16:32;;;;;;;;;;;;;;;19.22;100.00;100240.75;5033783;28;19925;-85